Time;durP1;ratioP1;P1;durP2;ratioP2;P2;SDS_P1;SDS_P2;PMS_P1;PMS_P2;Temp;Humidity;BMP_temperature;BMP_pressure;BME280_temperature;BME280_humidity;BME280_pressure;Samples;Min_cycle;Max_cycle;Signal;HPM_P1;HPM_P2
2024/01/06 00:02:27;;;;;;;;;;;;;;;;;;6273988;28;20005;-81
2024/01/06 00:05:27;;;;;;;;;;;;;;;;;;6279684;28;20026;-82
2024/01/06 00:08:27;;;;;;;;;;;;;;;;;;6273557;28;19927;-82
2024/01/06 00:11:27;;;;;;;;;;;;;;;;;;6276503;28;19959;-81
2024/01/06 00:14:27;;;;;;;;;;;;;;;;;;6277273;28;19968;-81
2024/01/06 00:17:28;;;;;;;;;;;;;;;;;;6273620;28;19925;-82
2024/01/06 00:20:28;;;;;;;;;;;;;;;;;;6277620;28;19920;-82
2024/01/06 00:23:28;;;;;;;;;;;;;;;;;;6273374;28;20357;-83
2024/01/06 00:26:28;;;;;;;;;;;;;;;;;;6274166;28;19956;-81
2024/01/06 00:29:28;;;;;;;;;;;;;;;;;;6277238;28;19959;-82
2024/01/06 00:32:29;;;;;;;;;;;;;;;;;;6278705;28;19984;-81
2024/01/06 00:35:29;;;;;;;;;;;;;;;;;;6275090;28;19923;-81
2024/01/06 00:38:29;;;;;;;;;;;;;;;;;;6279155;28;19920;-82
2024/01/06 00:41:30;;;;;;;;;;;;;;;;;;6276252;28;19920;-82
2024/01/06 00:44:30;;;;;;;;;;;;;;;;;;6275000;28;19932;-81
2024/01/06 00:47:30;;;;;;;;;;;;;;;;;;6270341;28;19959;-85
2024/01/06 00:50:30;;;;;;;;;;;;;;;;;;6271140;28;19920;-81
2024/01/06 00:53:30;;;;;;;;;;;;;;;;;;6274280;28;19932;-84
2024/01/06 00:56:30;;;;;;;;;;;;;;;;;;6271742;28;19948;-81
2024/01/06 00:59:30;;;;;;;;;;;;;;;;;;6274386;28;19912;-85
2024/01/06 01:02:31;;;;;;;;;;;;;;;;;;6268025;28;19916;-81
2024/01/06 01:05:31;;;;;;;;;;;;;;;;;;6275969;28;20147;-85
2024/01/06 01:08:31;;;;;;;;;;;;;;;;;;6277990;28;19921;-81
2024/01/06 01:11:32;;;;;;;;;;;;;;;;;;6275749;28;19987;-81
2024/01/06 01:14:32;;;;;;;;;;;;;;;;;;6277520;28;19964;-86
2024/01/06 01:17:32;;;;;;;;;;;;;;;;;;6273703;28;19917;-81
2024/01/06 01:20:32;;;;;;;;;;;;;;;;;;6272101;28;19913;-80
2024/01/06 01:23:32;;;;;;;;;;;;;;;;;;6276459;28;19912;-80
2024/01/06 01:26:33;;;;;;;;;;;;;;;;;;6255910;28;19913;-81
2024/01/06 01:29:33;;;;;;;;;;;;;;;;;;6273295;28;19919;-82
2024/01/06 01:32:33;;;;;;;;;;;;;;;;;;6274782;28;19924;-81
2024/01/06 01:35:33;;;;;;;;;;;;;;;;;;6280693;28;19917;-83
2024/01/06 01:38:33;;;;;;;;;;;;;;;;;;6278777;28;19913;-81
2024/01/06 01:41:33;;;;;;;;;;;;;;;;;;6276148;28;19913;-80
2024/01/06 01:44:34;;;;;;;;;;;;;;;;;;6278876;28;19913;-84
2024/01/06 01:47:34;;;;;;;;;;;;;;;;;;6276651;28;19920;-81
2024/01/06 01:50:34;;;;;;;;;;;;;;;;;;6277624;28;19920;-81
2024/01/06 01:53:34;;;;;;;;;;;;;;;;;;6280219;28;19924;-80
2024/01/06 01:56:34;;;;;;;;;;;;;;;;;;6287514;28;19921;-81
2024/01/06 01:59:34;;;;;;;;;;;;;;;;;;6267174;28;20344;-82
2024/01/06 02:02:34;;;;;;;;;;;;;;;;;;6276251;28;19960;-82
2024/01/06 02:05:35;;;;;;;;;;;;;;;;;;6276037;28;19913;-81
2024/01/06 02:08:35;;;;;;;;;;;;;;;;;;6280820;28;19920;-85
2024/01/06 02:11:35;;;;;;;;;;;;;;;;;;6279824;28;19967;-84
2024/01/06 02:14:35;;;;;;;;;;;;;;;;;;6278777;28;19916;-82
2024/01/06 02:17:35;;;;;;;;;;;;;;;;;;6276229;28;19927;-83
2024/01/06 02:20:35;;;;;;;;;;;;;;;;;;6275098;28;20419;-83
2024/01/06 02:23:36;;;;;;;;;;;;;;;;;;6277324;28;20030;-81
2024/01/06 02:26:36;;;;;;;;;;;;;;;;;;6273868;28;20346;-81
2024/01/06 02:29:36;;;;;;;;;;;;;;;;;;6279598;28;19913;-82
2024/01/06 02:32:36;;;;;;;;;;;;;;;;;;6277131;28;19921;-80
2024/01/06 02:35:36;;;;;;;;;;;;;;;;;;6265008;28;19925;-81
2024/01/06 02:38:36;;;;;;;;;;;;;;;;;;6277567;28;19917;-81
2024/01/06 02:41:36;;;;;;;;;;;;;;;;;;6261988;28;19913;-79
2024/01/06 02:44:36;;;;;;;;;;;;;;;;;;6276261;28;20288;-80
2024/01/06 02:47:37;;;;;;;;;;;;;;;;;;6266183;28;20006;-80
2024/01/06 02:50:37;;;;;;;;;;;;;;;;;;6275118;28;19921;-80
2024/01/06 02:53:37;;;;;;;;;;;;;;;;;;6278560;28;19927;-82
2024/01/06 02:56:38;;;;;;;;;;;;;;;;;;6277539;28;19921;-80
2024/01/06 02:59:38;;;;;;;;;;;;;;;;;;6275502;28;19913;-83
2024/01/06 03:02:41;;;;;;;;;;;;;;;;;;6271075;28;19920;-80
2024/01/06 03:05:41;;;;;;;;;;;;;;;;;;6259049;28;19924;-80
2024/01/06 03:08:41;;;;;;;;;;;;;;;;;;6241983;28;19925;-82
2024/01/06 03:11:42;;;;;;;;;;;;;;;;;;6252427;28;20341;-79
2024/01/06 03:14:42;;;;;;;;;;;;;;;;;;6257679;28;19931;-81
2024/01/06 03:17:42;;;;;;;;;;;;;;;;;;6252937;28;19924;-80
2024/01/06 03:20:42;;;;;;;;;;;;;;;;;;6256272;28;19921;-80
2024/01/06 03:23:42;;;;;;;;;;;;;;;;;;6254703;28;19921;-80
2024/01/06 03:26:42;;;;;;;;;;;;;;;;;;6251285;28;19921;-80
2024/01/06 03:29:42;;;;;;;;;;;;;;;;;;6249475;28;22612;-85
2024/01/06 03:32:43;;;;;;;;;;;;;;;;;;6255551;28;20288;-83
2024/01/06 03:35:43;;;;;;;;;;;;;;;;;;6252018;28;19917;-82
2024/01/06 03:38:43;;;;;;;;;;;;;;;;;;6255536;28;19974;-82
2024/01/06 03:41:43;;;;;;;;;;;;;;;;;;6237286;28;19963;-83
2024/01/06 03:44:43;;;;;;;;;;;;;;;;;;6252543;28;19917;-85
2024/01/06 03:47:43;;;;;;;;;;;;;;;;;;6249429;28;19912;-84
2024/01/06 03:50:43;;;;;;;;;;;;;;;;;;6251546;28;20389;-84
2024/01/06 03:53:44;;;;;;;;;;;;;;;;;;6251162;28;20027;-81
2024/01/06 03:56:44;;;;;;;;;;;;;;;;;;6249700;28;20039;-81
2024/01/06 03:59:44;;;;;;;;;;;;;;;;;;6252458;28;19948;-81
2024/01/06 04:02:44;;;;;;;;;;;;;;;;;;6249243;28;19948;-81
2024/01/06 04:05:44;;;;;;;;;;;;;;;;;;6254826;28;19913;-81
2024/01/06 04:08:44;;;;;;;;;;;;;;;;;;6267608;28;19925;-81
2024/01/06 04:11:44;;;;;;;;;;;;;;;;;;6278373;28;19920;-81
2024/01/06 04:14:45;;;;;;;;;;;;;;;;;;6270729;28;19928;-85
2024/01/06 04:17:47;;;;;;;;;;;;;;;;;;6274682;28;19912;-82
2024/01/06 04:20:47;;;;;;;;;;;;;;;;;;6261843;28;19934;-82
2024/01/06 04:23:47;;;;;;;;;;;;;;;;;;6278916;28;20034;-83
2024/01/06 04:26:47;;;;;;;;;;;;;;;;;;6279116;28;19920;-81
2024/01/06 04:29:47;;;;;;;;;;;;;;;;;;6275260;28;19918;-82
2024/01/06 04:32:48;;;;;;;;;;;;;;;;;;6260298;28;19928;-81
2024/01/06 04:35:50;;;;;;;;;;;;;;;;;;6273664;28;19919;-80
2024/01/06 04:38:50;;;;;;;;;;;;;;;;;;6275184;28;19962;-81
2024/01/06 04:41:50;;;;;;;;;;;;;;;;;;6274171;28;19920;-81
2024/01/06 04:44:50;;;;;;;;;;;;;;;;;;6273285;28;20007;-80
2024/01/06 04:47:50;;;;;;;;;;;;;;;;;;6278832;28;20141;-81
2024/01/06 04:50:50;;;;;;;;;;;;;;;;;;6258600;28;19921;-79
2024/01/06 04:53:50;;;;;;;;;;;;;;;;;;6270109;28;19928;-81
2024/01/06 04:56:53;;;;;;;;;;;;;;;;;;6272521;28;19916;-80
2024/01/06 04:59:53;;;;;;;;;;;;;;;;;;6272138;28;19960;-80
2024/01/06 05:02:53;;;;;;;;;;;;;;;;;;6256038;28;19920;-83
2024/01/06 05:05:53;;;;;;;;;;;;;;;;;;6273134;28;19960;-81
2024/01/06 05:08:54;;;;;;;;;;;;;;;;;;6270408;28;19963;-82
2024/01/06 05:11:54;;;;;;;;;;;;;;;;;;6278367;28;20397;-82
2024/01/06 05:14:54;;;;;;;;;;;;;;;;;;6280539;28;20028;-80
2024/01/06 05:17:54;;;;;;;;;;;;;;;;;;6277724;28;19995;-81
2024/01/06 05:20:54;;;;;;;;;;;;;;;;;;6278917;28;20011;-81
2024/01/06 05:23:55;;;;;;;;;;;;;;;;;;6266005;28;20332;-81
2024/01/06 05:26:55;;;;;;;;;;;;;;;;;;6277237;28;19948;-83
2024/01/06 05:29:55;;;;;;;;;;;;;;;;;;6279707;28;20502;-80
2024/01/06 05:32:55;;;;;;;;;;;;;;;;;;6277758;28;19921;-83
2024/01/06 05:35:55;;;;;;;;;;;;;;;;;;6280044;28;19920;-82
2024/01/06 05:38:55;;;;;;;;;;;;;;;;;;6276603;28;19935;-81
2024/01/06 05:41:55;;;;;;;;;;;;;;;;;;6278823;28;19913;-83
2024/01/06 05:44:55;;;;;;;;;;;;;;;;;;6261265;28;19923;-82
2024/01/06 05:47:56;;;;;;;;;;;;;;;;;;6266036;28;19917;-86
2024/01/06 05:50:56;;;;;;;;;;;;;;;;;;6276307;28;19913;-83
2024/01/06 05:53:56;;;;;;;;;;;;;;;;;;6275652;28;20517;-82
2024/01/06 05:56:56;;;;;;;;;;;;;;;;;;6279585;28;19951;-82
2024/01/06 05:59:56;;;;;;;;;;;;;;;;;;6273409;28;19916;-80
2024/01/06 06:02:56;;;;;;;;;;;;;;;;;;6277785;28;19966;-80
2024/01/06 06:05:56;;;;;;;;;;;;;;;;;;6276434;28;19958;-80
2024/01/06 06:08:57;;;;;;;;;;;;;;;;;;6277690;28;19928;-81
2024/01/06 06:11:57;;;;;;;;;;;;;;;;;;6278310;28;19921;-80
2024/01/06 06:14:57;;;;;;;;;;;;;;;;;;6278030;28;19951;-80
2024/01/06 06:18:00;;;;;;;;;;;;;;;;;;6277412;28;19912;-80
2024/01/06 06:21:00;;;;;;;;;;;;;;;;;;6282650;28;19928;-79
2024/01/06 06:24:00;;;;;;;;;;;;;;;;;;6273460;28;20405;-80
2024/01/06 06:27:00;;;;;;;;;;;;;;;;;;6270557;28;19920;-79
2024/01/06 06:30:00;;;;;;;;;;;;;;;;;;6277336;28;19923;-80
2024/01/06 06:33:01;;;;;;;;;;;;;;;;;;6275763;28;19920;-78
2024/01/06 06:36:01;;;;;;;;;;;;;;;;;;6275909;28;19924;-79
2024/01/06 06:39:01;;;;;;;;;;;;;;;;;;6274905;28;19916;-79
2024/01/06 06:42:02;;;;;;;;;;;;;;;;;;6273911;28;19919;-80
2024/01/06 06:45:02;;;;;;;;;;;;;;;;;;6275719;28;20012;-81
2024/01/06 06:48:02;;;;;;;;;;;;;;;;;;6277907;28;19917;-80
2024/01/06 06:51:02;;;;;;;;;;;;;;;;;;6276238;28;20010;-79
2024/01/06 06:54:02;;;;;;;;;;;;;;;;;;6277117;28;20347;-80
2024/01/06 06:57:03;;;;;;;;;;;;;;;;;;6276129;28;19921;-81
2024/01/06 07:00:03;;;;;;;;;;;;;;;;;;6270742;28;19920;-81
2024/01/06 07:03:03;;;;;;;;;;;;;;;;;;6274143;28;19970;-81
2024/01/06 07:06:03;;;;;;;;;;;;;;;;;;6272432;28;21454;-80
2024/01/06 07:09:04;;;;;;;;;;;;;;;;;;6268680;28;20031;-83
2024/01/06 07:12:05;;;;;;;;;;;;;;;;;;6275737;28;20332;-80
2024/01/06 07:15:05;;;;;;;;;;;;;;;;;;6269225;28;20345;-78
2024/01/06 07:18:05;;;;;;;;;;;;;;;;;;6270607;28;19935;-78
2024/01/06 07:21:08;;;;;;;;;;;;;;;;;;6274199;28;20291;-78
2024/01/06 07:24:08;;;;;;;;;;;;;;;;;;6272906;28;19917;-78
2024/01/06 07:27:08;;;;;;;;;;;;;;;;;;6270515;28;20070;-79
2024/01/06 07:30:08;;;;;;;;;;;;;;;;;;6270320;28;19938;-79
2024/01/06 07:33:09;;;;;;;;;;;;;;;;;;6269808;28;19924;-77
2024/01/06 07:36:09;;;;;;;;;;;;;;;;;;6270769;28;19949;-78
2024/01/06 07:39:09;;;;;;;;;;;;;;;;;;6270247;28;19924;-78
2024/01/06 07:42:09;;;;;;;;;;;;;;;;;;6252523;28;19920;-79
2024/01/06 07:45:09;;;;;;;;;;;;;;;;;;6272830;28;20051;-79
2024/01/06 07:48:09;;;;;;;;;;;;;;;;;;6275283;28;20285;-78
2024/01/06 07:51:09;;;;;;;;;;;;;;;;;;6269388;28;19959;-78
2024/01/06 07:54:11;;;;;;;;;;;;;;;;;;6270950;28;19928;-78
2024/01/06 07:57:12;;;;;;;;;;;;;;;;;;6271946;28;19919;-79
2024/01/06 08:00:16;;;;;;;;;;;;;;;;;;6267746;28;20293;-79
2024/01/06 08:03:16;;;;;;;;;;;;;;;;;;6269188;28;19920;-80
2024/01/06 08:06:16;;;;;;;;;;;;;;;;;;6273087;28;19937;-82
2024/01/06 08:09:16;;;;;;;;;;;;;;;;;;6271686;28;19921;-79
2024/01/06 08:12:16;;;;;;;;;;;;;;;;;;6273775;28;19913;-79
2024/01/06 08:15:16;;;;;;;;;;;;;;;;;;6268221;28;19966;-79
2024/01/06 08:18:18;;;;;;;;;;;;;;;;;;6273654;28;20372;-79
2024/01/06 08:21:18;;;;;;;;;;;;;;;;;;6271239;28;19913;-79
2024/01/06 08:24:18;;;;;;;;;;;;;;;;;;6275347;28;19919;-80
2024/01/06 08:27:19;;;;;;;;;;;;;;;;;;6273154;28;19921;-78
2024/01/06 08:30:19;;;;;;;;;;;;;;;;;;6269335;28;19917;-78
2024/01/06 08:33:19;;;;;;;;;;;;;;;;;;6272902;28;19931;-79
2024/01/06 08:36:19;;;;;;;;;;;;;;;;;;6273714;28;19919;-79
2024/01/06 08:39:22;;;;;;;;;;;;;;;;;;6272016;28;19921;-79
2024/01/06 08:42:24;;;;;;;;;;;;;;;;;;6271041;28;19916;-78
2024/01/06 08:45:24;;;;;;;;;;;;;;;;;;6276833;28;20016;-79
2024/01/06 08:48:24;;;;;;;;;;;;;;;;;;6274120;28;19924;-80
2024/01/06 08:51:26;;;;;;;;;;;;;;;;;;6275932;28;19923;-78
2024/01/06 08:54:26;;;;;;;;;;;;;;;;;;6277365;28;20298;-78
2024/01/06 08:57:26;;;;;;;;;;;;;;;;;;6274141;28;19912;-78
2024/01/06 09:00:26;;;;;;;;;;;;;;;;;;6270201;28;19917;-78
2024/01/06 09:03:26;;;;;;;;;;;;;;;;;;6277951;28;20358;-79
2024/01/06 09:06:26;;;;;;;;;;;;;;;;;;6279588;28;20296;-79
2024/01/06 09:09:28;;;;;;;;;;;;;;;;;;6260944;28;19928;-79
2024/01/06 09:12:29;;;;;;;;;;;;;;;;;;6265310;28;19964;-80
2024/01/06 09:15:29;;;;;;;;;;;;;;;;;;6258932;28;19921;-82
2024/01/06 09:18:29;;;;;;;;;;;;;;;;;;6269257;28;19919;-83
2024/01/06 09:21:30;;;;;;;;;;;;;;;;;;6266497;28;19932;-79
2024/01/06 09:24:31;;;;;;;;;;;;;;;;;;6256839;28;20067;-82
2024/01/06 09:27:32;;;;;;;;;;;;;;;;;;6258475;28;19974;-80
2024/01/06 09:30:32;;;;;;;;;;;;;;;;;;6261262;28;19943;-80
2024/01/06 09:33:33;;;;;;;;;;;;;;;;;;6265474;28;20373;-84
2024/01/06 09:36:34;;;;;;;;;;;;;;;;;;6265474;28;19936;-84
2024/01/06 09:39:34;;;;;;;;;;;;;;;;;;6260904;28;19913;-86
2024/01/06 09:42:34;;;;;;;;;;;;;;;;;;6264258;28;20280;-83
2024/01/06 09:45:34;;;;;;;;;;;;;;;;;;6263380;28;19927;-82
2024/01/06 09:48:35;;;;;;;;;;;;;;;;;;6265743;28;20161;-83
2024/01/06 09:51:35;;;;;;;;;;;;;;;;;;6261608;28;20012;-82
2024/01/06 09:54:35;;;;;;;;;;;;;;;;;;6262832;28;19968;-81
2024/01/06 09:57:35;;;;;;;;;;;;;;;;;;6262160;28;19966;-83
2024/01/06 10:00:35;;;;;;;;;;;;;;;;;;6263282;28;19968;-83
2024/01/06 10:03:36;;;;;;;;;;;;;;;;;;6268525;28;20281;-83
2024/01/06 10:06:36;;;;;;;;;;;;;;;;;;6256922;28;19927;-85
2024/01/06 10:09:36;;;;;;;;;;;;;;;;;;6263150;28;19924;-83
2024/01/06 10:12:37;;;;;;;;;;;;;;;;;;6260852;28;19928;-85
2024/01/06 10:15:37;;;;;;;;;;;;;;;;;;6245964;28;20265;-83
2024/01/06 10:18:38;;;;;;;;;;;;;;;;;;6262776;28;20435;-83
2024/01/06 10:21:38;;;;;;;;;;;;;;;;;;6266737;28;20361;-83
2024/01/06 10:24:38;;;;;;;;;;;;;;;;;;6262495;28;19921;-83
2024/01/06 10:27:38;;;;;;;;;;;;;;;;;;6265287;28;20007;-79
2024/01/06 10:30:38;;;;;;;;;;;;;;;;;;6256313;28;20317;-79
2024/01/06 10:33:39;;;;;;;;;;;;;;;;;;6264482;28;19921;-79
2024/01/06 10:36:39;;;;;;;;;;;;;;;;;;6258043;28;19919;-81
2024/01/06 10:39:39;;;;;;;;;;;;;;;;;;6265239;28;19913;-85
2024/01/06 10:42:39;;;;;;;;;;;;;;;;;;6259588;28;19913;-81
2024/01/06 10:45:40;;;;;;;;;;;;;;;;;;6262762;28;19927;-84
2024/01/06 10:48:42;;;;;;;;;;;;;;;;;;6261921;28;19913;-81
2024/01/06 10:51:42;;;;;;;;;;;;;;;;;;6266366;28;19920;-86
2024/01/06 10:54:43;;;;;;;;;;;;;;;;;;6259870;28;19920;-83
2024/01/06 10:57:43;;;;;;;;;;;;;;;;;;6247377;28;19913;-82
2024/01/06 11:00:43;;;;;;;;;;;;;;;;;;6265052;28;19923;-82
2024/01/06 11:03:43;;;;;;;;;;;;;;;;;;6266894;28;19927;-82
2024/01/06 11:06:43;;;;;;;;;;;;;;;;;;6263721;28;19962;-82
2024/01/06 11:09:44;;;;;;;;;;;;;;;;;;6263228;28;20132;-82
2024/01/06 11:12:44;;;;;;;;;;;;;;;;;;6273416;28;19928;-82
2024/01/06 11:15:44;;;;;;;;;;;;;;;;;;6277046;28;20548;-79
2024/01/06 11:18:45;;;;;;;;;;;;;;;;;;6276095;28;19920;-84
2024/01/06 11:21:46;;;;;;;;;;;;;;;;;;6258739;28;19913;-80
2024/01/06 11:24:46;;;;;;;;;;;;;;;;;;6276776;28;20269;-81
2024/01/06 11:27:47;;;;;;;;;;;;;;;;;;6262225;28;19912;-81
2024/01/06 11:30:50;;;;;;;;;;;;;;;;;;6273225;28;20011;-81
2024/01/06 11:33:50;;;;;;;;;;;;;;;;;;6277212;28;19920;-81
2024/01/06 11:36:50;;;;;;;;;;;;;;;;;;6274250;28;20281;-86
2024/01/06 11:39:50;;;;;;;;;;;;;;;;;;6277477;28;19912;-83
2024/01/06 11:42:50;;;;;;;;;;;;;;;;;;6280378;28;19927;-84
2024/01/06 11:45:51;;;;;;;;;;;;;;;;;;6274514;28;19913;-81
2024/01/06 11:48:53;;;;;;;;;;;;;;;;;;6273399;28;19912;-81
2024/01/06 11:51:53;;;;;;;;;;;;;;;;;;6258820;28;20393;-81
2024/01/06 11:54:53;;;;;;;;;;;;;;;;;;6279256;28;19936;-82
2024/01/06 11:57:53;;;;;;;;;;;;;;;;;;6272855;28;19913;-84
2024/01/06 12:00:53;;;;;;;;;;;;;;;;;;6271234;28;19913;-82
2024/01/06 12:03:54;;;;;;;;;;;;;;;;;;6273653;28;19943;-78
2024/01/06 12:06:54;;;;;;;;;;;;;;;;;;6260921;28;19927;-77
2024/01/06 12:09:54;;;;;;;;;;;;;;;;;;6273695;28;19913;-77
2024/01/06 12:12:54;;;;;;;;;;;;;;;;;;6270732;28;19928;-78
2024/01/06 12:15:55;;;;;;;;;;;;;;;;;;6270726;28;20363;-80
2024/01/06 12:18:55;;;;;;;;;;;;;;;;;;6274108;28;20233;-80
2024/01/06 12:21:55;;;;;;;;;;;;;;;;;;6275128;28;19946;-79
2024/01/06 12:24:55;;;;;;;;;;;;;;;;;;6273844;28;19921;-77
2024/01/06 12:27:55;;;;;;;;;;;;;;;;;;6263216;28;20329;-78
2024/01/06 12:30:55;;;;;;;;;;;;;;;;;;6276654;28;19964;-81
2024/01/06 12:33:56;;;;;;;;;;;;;;;;;;6274440;28;19921;-78
2024/01/06 12:36:56;;;;;;;;;;;;;;;;;;6277654;28;19917;-78
2024/01/06 12:39:56;;;;;;;;;;;;;;;;;;6275747;28;19913;-79
2024/01/06 12:42:57;;;;;;;;;;;;;;;;;;6274012;28;20003;-79
2024/01/06 12:45:57;;;;;;;;;;;;;;;;;;6261166;28;19913;-79
2024/01/06 12:48:58;;;;;;;;;;;;;;;;;;6272809;28;19919;-79
2024/01/06 12:51:58;;;;;;;;;;;;;;;;;;6276150;28;19912;-85
2024/01/06 12:54:58;;;;;;;;;;;;;;;;;;6273382;28;19956;-84
2024/01/06 12:58:01;;;;;;;;;;;;;;;;;;6275104;28;20365;-84
2024/01/06 13:01:02;;;;;;;;;;;;;;;;;;6259557;28;19921;-84
2024/01/06 13:04:02;;;;;;;;;;;;;;;;;;6256500;28;19928;-83
2024/01/06 13:07:02;;;;;;;;;;;;;;;;;;6271245;28;19932;-83
2024/01/06 13:10:03;;;;;;;;;;;;;;;;;;6270823;28;19924;-84
2024/01/06 13:13:03;;;;;;;;;;;;;;;;;;6278686;28;19920;-87
2024/01/06 13:16:05;;;;;;;;;;;;;;;;;;6259285;28;19953;-82
2024/01/06 13:19:05;;;;;;;;;;;;;;;;;;6258532;28;19966;-84
2024/01/06 13:22:05;;;;;;;;;;;;;;;;;;6275215;28;19913;-88
2024/01/06 13:25:07;;;;;;;;;;;;;;;;;;6274828;28;19927;-89
2024/01/06 13:28:07;;;;;;;;;;;;;;;;;;6261958;28;19913;-86
2024/01/06 13:31:08;;;;;;;;;;;;;;;;;;6259021;28;19938;-90
2024/01/06 13:34:08;;;;;;;;;;;;;;;;;;6279347;28;19924;-82
2024/01/06 13:37:08;;;;;;;;;;;;;;;;;;6274940;28;19919;-81
2024/01/06 13:40:08;;;;;;;;;;;;;;;;;;6275990;28;19917;-82
2024/01/06 13:43:15;;;;;;;;;;;;;;;;;;6278894;28;20703;-78
2024/01/06 13:46:15;;;;;;;;;;;;;;;;;;6275836;28;19923;-83
2024/01/06 13:49:15;;;;;;;;;;;;;;;;;;6274355;28;20350;-84
2024/01/06 13:52:15;;;;;;;;;;;;;;;;;;6275790;28;20309;-84
2024/01/06 13:55:15;;;;;;;;;;;;;;;;;;6278208;28;20031;-84
2024/01/06 13:58:15;;;;;;;;;;;;;;;;;;6277168;28;20350;-82
2024/01/06 14:01:15;;;;;;;;;;;;;;;;;;6274947;28;19971;-83
2024/01/06 14:04:16;;;;;;;;;;;;;;;;;;6271414;28;19931;-82
2024/01/06 14:07:21;;;;;;;;;;;;;;;;;;6271800;28;20114;-80
2024/01/06 14:10:21;;;;;;;;;;;;;;;;;;6275777;28;19913;-80
2024/01/06 14:13:22;;;;;;;;;;;;;;;;;;6274357;28;20301;-80
2024/01/06 14:16:22;;;;;;;;;;;;;;;;;;6274951;28;19922;-80
2024/01/06 14:19:22;;;;;;;;;;;;;;;;;;6273253;28;19920;-80
2024/01/06 14:22:22;;;;;;;;;;;;;;;;;;6270549;28;19913;-80
2024/01/06 14:25:22;;;;;;;;;;;;;;;;;;6271090;28;19917;-80
2024/01/06 14:28:22;;;;;;;;;;;;;;;;;;6279592;28;19928;-80
2024/01/06 14:31:22;;;;;;;;;;;;;;;;;;6273205;28;20161;-80
2024/01/06 14:34:22;;;;;;;;;;;;;;;;;;6261411;28;19929;-81
2024/01/06 14:37:23;;;;;;;;;;;;;;;;;;6276147;28;19920;-81
2024/01/06 14:40:24;;;;;;;;;;;;;;;;;;6277493;28;19927;-80
2024/01/06 14:43:24;;;;;;;;;;;;;;;;;;6263448;28;19912;-78
2024/01/06 14:46:24;;;;;;;;;;;;;;;;;;6270489;28;20376;-78
2024/01/06 14:49:24;;;;;;;;;;;;;;;;;;6271269;28;19935;-78
2024/01/06 14:52:25;;;;;;;;;;;;;;;;;;6272042;28;19975;-78
2024/01/06 14:55:25;;;;;;;;;;;;;;;;;;6273967;28;20057;-78
2024/01/06 14:58:25;;;;;;;;;;;;;;;;;;6272791;28;20024;-78
2024/01/06 15:01:25;;;;;;;;;;;;;;;;;;6272020;28;19927;-78
2024/01/06 15:04:25;;;;;;;;;;;;;;;;;;6273320;28;20368;-78
2024/01/06 15:07:25;;;;;;;;;;;;;;;;;;6272195;28;20396;-78
2024/01/06 15:10:25;;;;;;;;;;;;;;;;;;6271237;28;19935;-78
2024/01/06 15:13:26;;;;;;;;;;;;;;;;;;6271633;28;19929;-81
2024/01/06 15:16:26;;;;;;;;;;;;;;;;;;6257118;28;19920;-83
2024/01/06 15:19:27;;;;;;;;;;;;;;;;;;6275465;28;21575;-78
2024/01/06 15:22:29;;;;;;;;;;;;;;;;;;6274073;28;20288;-81
2024/01/06 15:25:29;;;;;;;;;;;;;;;;;;6271534;28;20292;-81
2024/01/06 15:28:30;;;;;;;;;;;;;;;;;;6290881;28;19920;-81
2024/01/06 15:31:30;;;;;;;;;;;;;;;;;;6287950;28;20300;-81
2024/01/06 15:34:30;;;;;;;;;;;;;;;;;;6299427;28;19939;-81
2024/01/06 15:37:31;;;;;;;;;;;;;;;;;;6292558;28;19917;-81
2024/01/06 15:40:31;;;;;;;;;;;;;;;;;;6300923;28;20039;-81
2024/01/06 15:43:31;;;;;;;;;;;;;;;;;;6288669;28;19923;-81
2024/01/06 15:46:31;;;;;;;;;;;;;;;;;;6265537;28;19917;-81
2024/01/06 15:49:32;;;;;;;;;;;;;;;;;;6297489;28;19912;-81
2024/01/06 15:52:32;;;;;;;;;;;;;;;;;;6289080;28;19913;-81
2024/01/06 15:55:32;;;;;;;;;;;;;;;;;;6293317;28;19916;-82
2024/01/06 15:58:32;;;;;;;;;;;;;;;;;;6295024;28;19921;-81
2024/01/06 16:01:32;;;;;;;;;;;;;;;;;;6283592;28;19955;-80
2024/01/06 16:04:32;;;;;;;;;;;;;;;;;;6286864;28;19912;-81
2024/01/06 16:07:32;;;;;;;;;;;;;;;;;;6294440;28;19920;-81
2024/01/06 16:10:33;;;;;;;;;;;;;;;;;;6280727;28;19975;-81
2024/01/06 16:13:33;;;;;;;;;;;;;;;;;;6297150;28;19940;-82
2024/01/06 16:16:33;;;;;;;;;;;;;;;;;;6290609;28;19959;-82
2024/01/06 16:19:33;;;;;;;;;;;;;;;;;;6279835;28;19925;-82
2024/01/06 16:22:33;;;;;;;;;;;;;;;;;;6287151;28;19917;-82
2024/01/06 16:25:33;;;;;;;;;;;;;;;;;;6292863;28;20284;-82
2024/01/06 16:28:33;;;;;;;;;;;;;;;;;;6291829;28;19921;-82
2024/01/06 16:31:34;;;;;;;;;;;;;;;;;;6286491;28;19912;-82
2024/01/06 16:34:34;;;;;;;;;;;;;;;;;;6288810;28;20007;-82
2024/01/06 16:37:34;;;;;;;;;;;;;;;;;;6272251;28;19924;-83
2024/01/06 16:40:34;;;;;;;;;;;;;;;;;;6298982;28;19912;-82
2024/01/06 16:43:37;;;;;;;;;;;;;;;;;;6299163;28;19913;-82
2024/01/06 16:46:37;;;;;;;;;;;;;;;;;;6283060;28;19913;-81
2024/01/06 16:49:37;;;;;;;;;;;;;;;;;;6298167;28;19967;-82
2024/01/06 16:52:38;;;;;;;;;;;;;;;;;;6293190;28;19951;-82
2024/01/06 16:55:38;;;;;;;;;;;;;;;;;;6292747;28;20015;-81
2024/01/06 16:58:38;;;;;;;;;;;;;;;;;;6285973;28;19913;-82
2024/01/06 17:01:38;;;;;;;;;;;;;;;;;;6285207;28;19924;-82
2024/01/06 17:04:38;;;;;;;;;;;;;;;;;;6282053;28;19919;-83
2024/01/06 17:07:44;;;;;;;;;;;;;;;;;;6288946;28;19928;-83
2024/01/06 17:10:44;;;;;;;;;;;;;;;;;;6288587;28;19963;-82
2024/01/06 17:13:44;;;;;;;;;;;;;;;;;;6292982;28;20322;-82
2024/01/06 17:16:44;;;;;;;;;;;;;;;;;;6287745;28;20314;-82
2024/01/06 17:19:44;;;;;;;;;;;;;;;;;;6292689;28;20309;-83
2024/01/06 17:22:45;;;;;;;;;;;;;;;;;;6294456;28;20341;-83
2024/01/06 17:25:45;;;;;;;;;;;;;;;;;;6299318;28;20319;-83
2024/01/06 17:28:46;;;;;;;;;;;;;;;;;;6294313;28;19920;-82
2024/01/06 17:31:46;;;;;;;;;;;;;;;;;;6296900;28;19920;-80
2024/01/06 17:34:46;;;;;;;;;;;;;;;;;;6290120;28;19916;-83
2024/01/06 17:37:46;;;;;;;;;;;;;;;;;;6292603;28;19917;-83
2024/01/06 17:40:46;;;;;;;;;;;;;;;;;;6308153;28;19919;-83
2024/01/06 17:43:47;;;;;;;;;;;;;;;;;;6293817;28;19919;-84
2024/01/06 17:46:47;;;;;;;;;;;;;;;;;;6299727;28;19997;-89
2024/01/06 17:49:48;;;;;;;;;;;;;;;;;;6294215;28;19912;-83
2024/01/06 17:52:49;;;;;;;;;;;;;;;;;;6289463;28;20258;-83
2024/01/06 17:55:49;;;;;;;;;;;;;;;;;;6297829;28;19920;-85
2024/01/06 17:58:49;;;;;;;;;;;;;;;;;;6296714;28;19970;-81
2024/01/06 18:01:49;;;;;;;;;;;;;;;;;;6278392;28;19919;-82
2024/01/06 18:04:49;;;;;;;;;;;;;;;;;;6284571;28;19915;-80
2024/01/06 18:07:49;;;;;;;;;;;;;;;;;;6295881;28;19935;-79
2024/01/06 18:10:49;;;;;;;;;;;;;;;;;;6300238;28;19913;-81
2024/01/06 18:13:49;;;;;;;;;;;;;;;;;;6283839;28;19963;-81
2024/01/06 18:16:50;;;;;;;;;;;;;;;;;;6291940;28;19924;-82
2024/01/06 18:19:50;;;;;;;;;;;;;;;;;;6269750;28;19927;-81
2024/01/06 18:22:50;;;;;;;;;;;;;;;;;;6288722;28;19973;-81
2024/01/06 18:25:50;;;;;;;;;;;;;;;;;;6302281;28;20262;-82
2024/01/06 18:28:50;;;;;;;;;;;;;;;;;;6282221;28;20277;-82
2024/01/06 18:31:51;;;;;;;;;;;;;;;;;;6264082;28;19920;-75
2024/01/06 18:34:51;;;;;;;;;;;;;;;;;;6283664;28;19916;-81
2024/01/06 18:37:51;;;;;;;;;;;;;;;;;;6293984;28;19920;-80
2024/01/06 18:40:51;;;;;;;;;;;;;;;;;;6300462;28;19920;-82
2024/01/06 18:43:51;;;;;;;;;;;;;;;;;;6290166;28;19999;-80
2024/01/06 18:46:51;;;;;;;;;;;;;;;;;;6289616;28;19917;-81
2024/01/06 18:49:51;;;;;;;;;;;;;;;;;;6272491;28;19917;-80
2024/01/06 18:52:52;;;;;;;;;;;;;;;;;;6295694;28;19918;-82
2024/01/06 18:55:52;;;;;;;;;;;;;;;;;;6286348;28;20277;-81
2024/01/06 18:58:52;;;;;;;;;;;;;;;;;;6299131;28;19916;-81
2024/01/06 19:01:52;;;;;;;;;;;;;;;;;;6261442;28;20240;-82
2024/01/06 19:04:52;;;;;;;;;;;;;;;;;;6298200;28;19919;-81
2024/01/06 19:07:54;;;;;;;;;;;;;;;;;;6283357;28;19921;-82
2024/01/06 19:10:54;;;;;;;;;;;;;;;;;;6279750;28;20007;-81
2024/01/06 19:13:55;;;;;;;;;;;;;;;;;;6292824;28;19916;-81
2024/01/06 19:16:55;;;;;;;;;;;;;;;;;;6279867;28;19962;-81
2024/01/06 19:19:55;;;;;;;;;;;;;;;;;;6273025;28;19916;-82
2024/01/06 19:22:55;;;;;;;;;;;;;;;;;;6291080;28;20333;-81
2024/01/06 19:25:56;;;;;;;;;;;;;;;;;;6290395;28;19959;-81
2024/01/06 19:28:56;;;;;;;;;;;;;;;;;;6273336;28;19916;-81
2024/01/06 19:31:56;;;;;;;;;;;;;;;;;;6260733;28;19951;-81
2024/01/06 19:34:58;;;;;;;;;;;;;;;;;;6279809;28;19932;-81
2024/01/06 19:37:58;;;;;;;;;;;;;;;;;;6284506;28;19936;-81
2024/01/06 19:40:58;;;;;;;;;;;;;;;;;;6283133;28;19912;-81
2024/01/06 19:44:01;;;;;;;;;;;;;;;;;;6258683;28;20343;-81
2024/01/06 19:47:01;;;;;;;;;;;;;;;;;;6271434;28;19934;-82
2024/01/06 19:50:02;;;;;;;;;;;;;;;;;;6281191;28;19995;-82
2024/01/06 19:53:02;;;;;;;;;;;;;;;;;;6268359;28;19928;-82
2024/01/06 19:56:03;;;;;;;;;;;;;;;;;;6281787;28;20018;-78
2024/01/06 19:59:03;;;;;;;;;;;;;;;;;;6287798;28;20035;-79
2024/01/06 20:02:03;;;;;;;;;;;;;;;;;;6284082;28;19917;-79
2024/01/06 20:05:04;;;;;;;;;;;;;;;;;;6289333;28;20647;-79
2024/01/06 20:08:05;;;;;;;;;;;;;;;;;;6279935;28;19935;-78
2024/01/06 20:11:05;;;;;;;;;;;;;;;;;;6291720;28;20337;-79
2024/01/06 20:14:05;;;;;;;;;;;;;;;;;;6290493;28;20319;-78
2024/01/06 20:17:09;;;;;;;;;;;;;;;;;;6279202;28;20236;-78
2024/01/06 20:20:11;;;;;;;;;;;;;;;;;;6279384;28;19966;-78
2024/01/06 20:23:11;;;;;;;;;;;;;;;;;;6277908;28;19916;-78
2024/01/06 20:26:13;;;;;;;;;;;;;;;;;;6274001;28;20326;-78
2024/01/06 20:29:13;;;;;;;;;;;;;;;;;;6280923;28;20284;-78
2024/01/06 20:32:14;;;;;;;;;;;;;;;;;;6275840;28;19956;-78